Norwegian Spirit — C6TQ6 — position and weather

sailwx.info

Track history (hours):
 
Tides and Currents Weather Stations Pressure Air Temp Water Temp Dewpoint Dewpoint Depression Visibility Wind Speed Wind Dir Waves Ship Positions

Norwegian Spirit

Operator: Norwegian Cruise Line

Last reported at 2017-Jun-25 01:35 UTC. Time now 2017-Jun-25 05:15 UTC.
Position N 40°41' E 018°42'.

Type: Passenger vessel. MMSI: 311746000.

Date/timePositionNaut miles runAvg speedWind from/ knotsBaromVisibWave heightAir tempDewpointWater temp
2017-Jun-25 01:35N 40°41' E 018°42'3421.2
2017-Jun-25 00:00N 41°06' E 018°12'16413.6 200 / 91017.010.8 24.021.1
2017-Jun-24 11:57N 43°30' E 016°27'0 0.0
2017-Jun-24 05:37N 43°30' E 016°27'1 1.9
2017-Jun-24 05:07N 43°30' E 016°25'1 7.7
2017-Jun-24 05:00N 43°29' E 016°25'2416.5
2017-Jun-24 03:33N 43°27' E 015°52'120.6
2017-Jun-24 03:30N 43°27' E 015°51'1120.8
2017-Jun-24 02:59N 43°30' E 015°36'1019.9
2017-Jun-24 02:29N 43°32' E 015°23'1017.0
2017-Jun-24 01:55N 43°36' E 015°11'717.1
2017-Jun-24 01:29N 43°40' E 015°02'917.1
2017-Jun-24 00:59N 43°44' E 014°52'817.2
2017-Jun-24 00:30N 43°48' E 014°42'917.5
2017-Jun-24 00:00N 43°53' E 014°32'5310.2
2017-Jun-24 00:00N 43°48' E 014°30'1223.6 130 / 131015.0 25.023.6
2017-Jun-23 23:30N 43°58' E 014°21'917.6
2017-Jun-23 23:00N 44°02' E 014°11'917.1
2017-Jun-23 22:30N 44°08' E 014°01'917.0
2017-Jun-23 22:00N 44°15' E 013°55'917.0
2017-Jun-23 21:30N 44°22' E 013°48'917.0
2017-Jun-23 20:58N 44°30' E 013°42'816.8
2017-Jun-23 20:30N 44°36' E 013°36'816.5
2017-Jun-23 20:00N 44°43' E 013°30'816.4
2017-Jun-23 19:30N 44°50' E 013°23'816.2
2017-Jun-23 19:00N 44°57' E 013°17'816.2
2017-Jun-23 18:30N 45°03' E 013°11'816.2
2017-Jun-23 18:00N 45°10' E 013°05'816.5
2017-Jun-23 17:30N 45°18' E 013°02'816.1
2017-Jun-23 17:00N 45°26' E 013°07'816.8
2017-Jun-23 16:30N 45°32' E 013°16'816.3
2017-Jun-23 16:00N 45°35' E 013°26'815.3
2017-Jun-23 15:30N 45°37' E 013°37'611.7
2017-Jun-23 15:00N 45°33' E 013°44'0 0.0
2017-Jun-23 13:58N 45°33' E 013°44'0 0.0
2017-Jun-23 12:58N 45°33' E 013°44'0 0.0
2017-Jun-23 12:28N 45°33' E 013°44'3 6.8
2017-Jun-23 12:00N 45°30' E 013°42'3161.6 310 / 131016.0
2017-Jun-23 11:58N 45°33' E 013°44'0 0.0
2017-Jun-23 11:28N 45°33' E 013°44'0 0.0
2017-Jun-23 10:58N 45°33' E 013°44'0 0.0
2017-Jun-23 10:28N 45°33' E 013°44'0 0.0
2017-Jun-23 09:58N 45°33' E 013°44'0 0.0
2017-Jun-23 09:28N 45°33' E 013°44'0 0.0
2017-Jun-23 08:58N 45°33' E 013°44'0 0.0
2017-Jun-23 08:28N 45°33' E 013°44'0 0.0
2017-Jun-23 07:58N 45°33' E 013°44'0 0.0
2017-Jun-23 07:28N 45°33' E 013°44'0 0.0
2017-Jun-23 06:58N 45°33' E 013°44'0 0.0
2017-Jun-23 06:28N 45°33' E 013°44'0 0.0
2017-Jun-23 05:58N 45°33' E 013°44'0 0.3
2017-Jun-23 05:31N 45°33' E 013°44'2 3.4
2017-Jun-23 05:01N 45°34' E 013°41'4 7.3
2017-Jun-23 04:30N 45°34' E 013°36'4 7.4
2017-Jun-23 04:00N 45°34' E 013°31'4 7.7
2017-Jun-23 03:31N 45°32' E 013°26'4 7.6
2017-Jun-23 03:00N 45°30' E 013°21'4 7.5
2017-Jun-23 02:31N 45°28' E 013°17'4 7.6
2017-Jun-23 02:00N 45°25' E 013°13'3 6.9
2017-Jun-23 01:30N 45°22' E 013°10'4 7.3
2017-Jun-23 01:01N 45°19' E 013°11'4 7.3
2017-Jun-23 00:31N 45°15' E 013°12'4 7.5
2017-Jun-23 00:00N 45°11' E 013°12'145.4
2017-Jun-23 00:00N 45°12' E 013°12'4 8.6 100 / 151016.0 5.4 24.0
2017-Jun-22 23:31N 45°08' E 013°13'3 6.3
2017-Jun-22 23:00N 45°06' E 013°09'3 6.7
2017-Jun-22 22:30N 45°06' E 013°04'3 6.4
2017-Jun-22 22:01N 45°09' E 013°03'3 6.7
2017-Jun-22 21:30N 45°12' E 013°02'3 6.8
2017-Jun-22 21:00N 45°15' E 013°00'3 6.7
2017-Jun-22 20:30N 45°18' E 012°59'3 6.5
2017-Jun-22 20:00N 45°20' E 012°55'4 7.5
2017-Jun-22 19:31N 45°20' E 012°50'4 7.3
2017-Jun-22 19:00N 45°21' E 012°45'4 7.3
2017-Jun-22 18:30N 45°22' E 012°39'4 8.7
2017-Jun-22 18:01N 45°22' E 012°33'4 7.4
2017-Jun-22 17:31N 45°24' E 012°29'4 8.6
2017-Jun-22 17:00N 45°26' E 012°23'3 5.1
2017-Jun-22 16:31N 45°26' E 012°19'1 1.1
2017-Jun-22 15:47N 45°26' E 012°19'0 0.0
2017-Jun-22 15:29N 45°26' E 012°19'0 0.0
2017-Jun-22 14:56N 45°26' E 012°19'0 0.0
2017-Jun-22 14:29N 45°26' E 012°19'0 0.0
2017-Jun-22 13:29N 45°26' E 012°19'62126.3
2017-Jun-22 13:00N 44°24' E 012°18'6210180.7 090 / 51016.010.8 26.020.222.0
2017-Jun-22 12:59N 45°26' E 012°19'0 0.0
2017-Jun-22 12:29N 45°26' E 012°19'0 0.0
2017-Jun-22 11:50N 45°26' E 012°19'0 0.0
2017-Jun-22 11:29N 45°26' E 012°19'0 0.0
2017-Jun-22 10:59N 45°26' E 012°19'0 0.0
2017-Jun-22 10:29N 45°26' E 012°19'0 0.0
2017-Jun-22 09:56N 45°26' E 012°19'0 0.0
2017-Jun-22 09:29N 45°26' E 012°19'0 0.0
2017-Jun-22 08:59N 45°26' E 012°19'0 0.0
2017-Jun-22 08:29N 45°26' E 012°19'0 0.0
2017-Jun-22 07:50N 45°26' E 012°19'0 0.0
2017-Jun-21 23:35N 45°26' E 012°19'0 0.0
2017-Jun-21 23:26N 45°26' E 012°19'0 0.0
2017-Jun-21 22:59N 45°26' E 012°19'0 0.0
2017-Jun-21 22:23N 45°26' E 012°19'0 0.0
2017-Jun-21 21:59N 45°26' E 012°19'0 0.0
2017-Jun-21 21:29N 45°26' E 012°19'0 0.0
2017-Jun-21 20:59N 45°26' E 012°19'0 0.0
2017-Jun-21 20:26N 45°26' E 012°19'0 0.0
2017-Jun-21 19:47N 45°26' E 012°19'0 0.0
2017-Jun-21 19:29N 45°26' E 012°19'0 0.0
2017-Jun-21 18:56N 45°26' E 012°19'0 0.0
2017-Jun-21 18:23N 45°26' E 012°19'0 0.0
2017-Jun-21 17:59N 45°26' E 012°19'0 0.0
2017-Jun-21 16:38N 45°26' E 012°19'0 0.0
2017-Jun-21 16:23N 45°26' E 012°19'0 0.0
2017-Jun-21 15:59N 45°26' E 012°19'0 0.0
2017-Jun-21 15:29N 45°26' E 012°19'0 0.0
2017-Jun-21 14:59N 45°26' E 012°19'0 0.0
2017-Jun-21 14:29N 45°26' E 012°19'0 0.0
2017-Jun-21 13:29N 45°26' E 012°19'0 0.0
2017-Jun-21 12:59N 45°26' E 012°19'0 0.0
2017-Jun-21 12:14N 45°26' E 012°19'0 0.0
2017-Jun-21 11:59N 45°26' E 012°19'0 0.0
2017-Jun-21 11:29N 45°26' E 012°19'0 0.0
2017-Jun-21 10:53N 45°26' E 012°19'0 0.0
2017-Jun-21 10:29N 45°26' E 012°19'0 0.0
2017-Jun-21 09:59N 45°26' E 012°19'0 0.1
2017-Jun-21 09:30N 45°26' E 012°19'1 1.7
2017-Jun-21 09:00N 45°26' E 012°20'2 4.9
2017-Jun-21 08:31N 45°26' E 012°23'5 9.3
2017-Jun-21 08:01N 45°24' E 012°29'612.1
2017-Jun-21 07:30N 45°18' E 012°33'715.0
2017-Jun-21 07:00N 45°13' E 012°40'715.0
2017-Jun-21 06:30N 45°08' E 012°48'816.1
2017-Jun-21 06:00N 45°01' E 012°52'816.6
2017-Jun-21 05:30N 44°53' E 012°57'816.7
2017-Jun-21 05:00N 44°45' E 013°01'3228.1
2017-Jun-21 05:00N 44°42' E 013°00'612.9 100 / 91016.0 23.020.125.0
2017-Jun-21 04:30N 44°37' E 013°06'918.0
2017-Jun-21 04:00N 44°28' E 013°10'918.0
2017-Jun-21 03:30N 44°20' E 013°14'917.4
2017-Jun-21 03:00N 44°14' E 013°22'917.9
2017-Jun-21 02:30N 44°08' E 013°32'917.8
2017-Jun-21 02:00N 44°03' E 013°42'917.6
2017-Jun-21 01:30N 43°58' E 013°52'917.9
2017-Jun-21 01:00N 43°54' E 014°03'1220.7
2017-Jun-21 00:27N 43°48' E 014°17'1020.8
2017-Jun-20 23:59N 43°40' E 014°25'1720.9
2017-Jun-20 23:10N 43°27' E 014°40'320.9
2017-Jun-20 23:00N 43°24' E 014°43'1120.9
2017-Jun-20 22:29N 43°16' E 014°52'1021.2
2017-Jun-20 22:00N 43°08' E 015°01'1521.4
2017-Jun-20 21:19N 42°56' E 015°14'721.3
2017-Jun-20 21:00N 42°51' E 015°20'1121.3
2017-Jun-20 20:29N 42°48' E 015°34'1721.1
2017-Jun-20 19:42N 42°43' E 015°56'1021.2
2017-Jun-20 19:13N 42°40' E 016°09'521.1
2017-Jun-20 18:58N 42°39' E 016°16'1321.0
2017-Jun-20 18:21N 42°37' E 016°34'920.8
2017-Jun-20 17:56N 42°36' E 016°45'920.8
2017-Jun-20 17:29N 42°36' E 016°58'1224.5
2017-Jun-20 17:00N 42°30' E 017°12'5409.1 320 / 61016.0 24.021.124.0
2017-Jun-20 16:59N 42°35' E 017°12'1221.1
2017-Jun-20 16:25N 42°35' E 017°28'921.0
2017-Jun-20 15:59N 42°35' E 017°41'84 5.3
2017-Jun-20 00:08N 41°17' E 018°23'917.6
2017-Jun-19 23:38N 41°09' E 018°25'217.4
2017-Jun-19 23:30N 41°06' E 018°25'2120.1
2017-Jun-19 22:25N 40°45' E 018°31'920.8
2017-Jun-19 22:00N 40°36' E 018°32'1020.3
2017-Jun-19 21:30N 40°27' E 018°35'19919.2
2017-Jun-19 11:07N 37°53' E 015°52'420.4
2017-Jun-19 10:56N 37°52' E 015°47'1019.0
2017-Jun-19 10:25N 37°58' E 015°37'920.5
2017-Jun-19 09:58N 38°07' E 015°35'715.9
2017-Jun-19 09:30N 38°14' E 015°37'611.3
2017-Jun-19 09:00N 38°19' E 015°40'612.9
2017-Jun-19 08:30N 38°25' E 015°37'816.2
2017-Jun-19 08:00N 38°32' E 015°33'916.2
2017-Jun-19 07:28N 38°40' E 015°28'916.2
2017-Jun-19 06:56N 38°48' E 015°23'23917.2
2017-Jun-18 17:00N 41°42' E 011°48'118 5.2 270 / 241016.0 25.022.225.0
2017-Jun-17 18:14N 40°38' E 013°59'516.9
2017-Jun-17 17:57N 40°40' E 014°05'817.2
2017-Jun-17 17:30N 40°45' E 014°12'6 6.1
2017-Jun-17 16:34N 40°50' E 014°16'0 0.0
2017-Jun-17 16:28N 40°50' E 014°16'0 0.0
2017-Jun-17 15:52N 40°50' E 014°16'0 0.0
2017-Jun-17 15:16N 40°50' E 014°16'0 0.0
2017-Jun-17 14:52N 40°50' E 014°16'0 0.0
2017-Jun-17 14:16N 40°50' E 014°16'0 0.0
2017-Jun-17 12:40N 40°50' E 014°16'0 0.0
2017-Jun-17 12:10N 40°50' E 014°16'0 0.0
2017-Jun-17 11:58N 40°50' E 014°16'0 0.0
2017-Jun-17 11:28N 40°50' E 014°16'0 0.0
2017-Jun-17 10:58N 40°50' E 014°16'0 0.0
2017-Jun-17 08:22N 40°50' E 014°16'0 0.0
2017-Jun-17 07:58N 40°50' E 014°16'0 0.0
2017-Jun-17 07:28N 40°50' E 014°16'0 0.0
2017-Jun-17 05:28N 40°50' E 014°16'0 0.1
2017-Jun-17 04:38N 40°50' E 014°16'0 1.1
2017-Jun-17 04:30N 40°50' E 014°16'3 5.2
2017-Jun-17 04:00N 40°48' E 014°17'714.1
2017-Jun-17 03:30N 40°41' E 014°17'714.1
2017-Jun-17 03:00N 40°34' E 014°18'714.4
2017-Jun-17 02:30N 40°27' E 014°22'2214.5
2017-Jun-17 00:58N 40°07' E 014°34'814.6
2017-Jun-17 00:26N 40°00' E 014°39'714.8
2017-Jun-16 23:59N 39°54' E 014°42'6014.5
2017-Jun-16 19:49N 38°59' E 015°16'614.8
2017-Jun-16 19:26N 38°54' E 015°19'614.7
2017-Jun-16 19:00N 38°49' E 015°23'714.7
2017-Jun-16 18:30N 38°42' E 015°27'714.6
2017-Jun-16 18:00N 38°36' E 015°32'714.8
2017-Jun-16 17:30N 38°29' E 015°35'714.9
2017-Jun-16 17:00N 38°22' E 015°39'713.1
2017-Jun-16 16:29N 38°15' E 015°40'612.9
2017-Jun-16 16:00N 38°12' E 015°34'0 0.4
2017-Jun-16 15:21N 38°12' E 015°33'0 0.0
2017-Jun-16 14:57N 38°12' E 015°33'0 0.0
2017-Jun-16 14:27N 38°12' E 015°33'0 0.0
2017-Jun-16 13:21N 38°12' E 015°33'0 0.0
2017-Jun-16 12:57N 38°12' E 015°33'0 0.0
2017-Jun-16 12:21N 38°12' E 015°33'0 0.0
2017-Jun-16 10:39N 38°12' E 015°33'0 0.0
2017-Jun-16 09:09N 38°12' E 015°33'0 0.0
2017-Jun-16 08:51N 38°12' E 015°33'0 0.0
2017-Jun-16 08:27N 38°12' E 015°33'0 0.0
2017-Jun-16 07:51N 38°12' E 015°33'0 0.0
2017-Jun-16 07:09N 38°12' E 015°33'0 0.0
2017-Jun-16 06:39N 38°12' E 015°33'0 0.0
2017-Jun-16 06:21N 38°12' E 015°33'0 0.0
2017-Jun-16 05:51N 38°12' E 015°33'0 0.0
2017-Jun-16 05:21N 38°12' E 015°33'1 2.1
2017-Jun-16 04:59N 38°12' E 015°34'5 9.4
2017-Jun-16 04:30N 38°08' E 015°36'916.5
2017-Jun-16 03:59N 37°60' E 015°36'1017.5
2017-Jun-16 03:24N 37°49' E 015°36'1717.1
2017-Jun-16 02:26N 37°33' E 015°36'3017.4
2017-Jun-16 00:42N 37°03' E 015°38'617.5
2017-Jun-16 00:23N 36°57' E 015°37'917.9
2017-Jun-15 23:53N 36°49' E 015°33'718.1
2017-Jun-15 23:30N 36°42' E 015°30'918.2
2017-Jun-15 23:00N 36°34' E 015°25'917.9
2017-Jun-15 22:30N 36°27' E 015°18'917.9
2017-Jun-15 22:00N 36°21' E 015°10'917.5
2017-Jun-15 21:30N 36°15' E 015°02'917.3
2017-Jun-15 21:00N 36°10' E 014°53'917.5
2017-Jun-15 20:30N 36°04' E 014°45'917.4
2017-Jun-15 20:00N 35°58' E 014°38'713.1
2017-Jun-15 19:30N 35°54' E 014°31'1 0.1
2017-Jun-15 10:42N 35°54' E 014°31'0 1.6
2017-Jun-15 10:30N 35°54' E 014°31'2 4.7
2017-Jun-15 10:00N 35°56' E 014°33'815.2
2017-Jun-15 09:30N 36°02' E 014°29'816.2
2017-Jun-15 09:00N 36°08' E 014°21'816.1
2017-Jun-15 08:30N 36°12' E 014°13'816.5
2017-Jun-15 08:01N 36°17' E 014°05'816.7
2017-Jun-15 07:31N 36°22' E 013°56'816.7
2017-Jun-15 07:00N 36°27' E 013°48'816.8
2017-Jun-15 06:30N 36°32' E 013°39'816.8
2017-Jun-15 06:00N 36°37' E 013°31'817.0
2017-Jun-15 05:30N 36°41' E 013°22'917.2
2017-Jun-15 05:00N 36°46' E 013°13'917.1
2017-Jun-15 04:30N 36°51' E 013°04'917.1
2017-Jun-15 04:00N 36°56' E 012°56'917.5
2017-Jun-15 03:30N 37°01' E 012°47'918.0
2017-Jun-15 03:00N 37°06' E 012°37'918.3
2017-Jun-15 02:30N 37°12' E 012°29'918.5
2017-Jun-15 02:00N 37°18' E 012°20'  
Track history (hours):
 
Tides and Currents Weather Stations Pressure Air Temp Water Temp Dewpoint Dewpoint Depression Visibility Wind Speed Wind Dir Waves Ship Positions

Norwegian Spirit

Operator: Norwegian Cruise Line

Last reported at 2017-Jun-25 01:35 UTC. Time now 2017-Jun-25 05:15 UTC.
Position N 40°41' E 018°42'.

Type: Passenger vessel. MMSI: 311746000.

Date/timePositionNaut miles runAvg speedWind from/ knotsBaromVisibWave heightAir tempDewpointWater temp
2017-Jun-25 01:35N 40°41' E 018°42'3421.2
2017-Jun-25 00:00N 41°06' E 018°12'16413.6 200 / 91017.010.8 24.021.1
2017-Jun-24 11:57N 43°30' E 016°27'0 0.0
2017-Jun-24 05:37N 43°30' E 016°27'1 1.9
2017-Jun-24 05:07N 43°30' E 016°25'1 7.7
2017-Jun-24 05:00N 43°29' E 016°25'2416.5
2017-Jun-24 03:33N 43°27' E 015°52'120.6
2017-Jun-24 03:30N 43°27' E 015°51'1120.8
2017-Jun-24 02:59N 43°30' E 015°36'1019.9
2017-Jun-24 02:29N 43°32' E 015°23'1017.0
2017-Jun-24 01:55N 43°36' E 015°11'717.1
2017-Jun-24 01:29N 43°40' E 015°02'917.1
2017-Jun-24 00:59N 43°44' E 014°52'817.2
2017-Jun-24 00:30N 43°48' E 014°42'917.5
2017-Jun-24 00:00N 43°53' E 014°32'5310.2
2017-Jun-24 00:00N 43°48' E 014°30'1223.6 130 / 131015.0 25.023.6
2017-Jun-23 23:30N 43°58' E 014°21'917.6
2017-Jun-23 23:00N 44°02' E 014°11'917.1
2017-Jun-23 22:30N 44°08' E 014°01'917.0
2017-Jun-23 22:00N 44°15' E 013°55'917.0
2017-Jun-23 21:30N 44°22' E 013°48'917.0
2017-Jun-23 20:58N 44°30' E 013°42'816.8
2017-Jun-23 20:30N 44°36' E 013°36'816.5
2017-Jun-23 20:00N 44°43' E 013°30'816.4
2017-Jun-23 19:30N 44°50' E 013°23'816.2
2017-Jun-23 19:00N 44°57' E 013°17'816.2
2017-Jun-23 18:30N 45°03' E 013°11'816.2
2017-Jun-23 18:00N 45°10' E 013°05'816.5
2017-Jun-23 17:30N 45°18' E 013°02'816.1
2017-Jun-23 17:00N 45°26' E 013°07'816.8
2017-Jun-23 16:30N 45°32' E 013°16'816.3
2017-Jun-23 16:00N 45°35' E 013°26'815.3
2017-Jun-23 15:30N 45°37' E 013°37'611.7
2017-Jun-23 15:00N 45°33' E 013°44'0 0.0
2017-Jun-23 13:58N 45°33' E 013°44'0 0.0
2017-Jun-23 12:58N 45°33' E 013°44'0 0.0
2017-Jun-23 12:28N 45°33' E 013°44'3 6.8
2017-Jun-23 12:00N 45°30' E 013°42'3161.6 310 / 131016.0
2017-Jun-23 11:58N 45°33' E 013°44'0 0.0
2017-Jun-23 11:28N 45°33' E 013°44'0 0.0
2017-Jun-23 10:58N 45°33' E 013°44'0 0.0
2017-Jun-23 10:28N 45°33' E 013°44'0 0.0
2017-Jun-23 09:58N 45°33' E 013°44'0 0.0
2017-Jun-23 09:28N 45°33' E 013°44'0 0.0
2017-Jun-23 08:58N 45°33' E 013°44'0 0.0
2017-Jun-23 08:28N 45°33' E 013°44'0 0.0
2017-Jun-23 07:58N 45°33' E 013°44'0 0.0
2017-Jun-23 07:28N 45°33' E 013°44'0 0.0
2017-Jun-23 06:58N 45°33' E 013°44'0 0.0
2017-Jun-23 06:28N 45°33' E 013°44'0 0.0
2017-Jun-23 05:58N 45°33' E 013°44'0 0.3
2017-Jun-23 05:31N 45°33' E 013°44'2 3.4
2017-Jun-23 05:01N 45°34' E 013°41'4 7.3
2017-Jun-23 04:30N 45°34' E 013°36'4 7.4
2017-Jun-23 04:00N 45°34' E 013°31'4 7.7
2017-Jun-23 03:31N 45°32' E 013°26'4 7.6
2017-Jun-23 03:00N 45°30' E 013°21'4 7.5
2017-Jun-23 02:31N 45°28' E 013°17'4 7.6
2017-Jun-23 02:00N 45°25' E 013°13'3 6.9
2017-Jun-23 01:30N 45°22' E 013°10'4 7.3
2017-Jun-23 01:01N 45°19' E 013°11'4 7.3
2017-Jun-23 00:31N 45°15' E 013°12'4 7.5
2017-Jun-23 00:00N 45°11' E 013°12'145.4
2017-Jun-23 00:00N 45°12' E 013°12'4 8.6 100 / 151016.0 5.4 24.0
2017-Jun-22 23:31N 45°08' E 013°13'3 6.3
2017-Jun-22 23:00N 45°06' E 013°09'3 6.7
2017-Jun-22 22:30N 45°06' E 013°04'3 6.4
2017-Jun-22 22:01N 45°09' E 013°03'3 6.7
2017-Jun-22 21:30N 45°12' E 013°02'3 6.8
2017-Jun-22 21:00N 45°15' E 013°00'3 6.7
2017-Jun-22 20:30N 45°18' E 012°59'3 6.5
2017-Jun-22 20:00N 45°20' E 012°55'4 7.5
2017-Jun-22 19:31N 45°20' E 012°50'4 7.3
2017-Jun-22 19:00N 45°21' E 012°45'4 7.3
2017-Jun-22 18:30N 45°22' E 012°39'4 8.7
2017-Jun-22 18:01N 45°22' E 012°33'4 7.4
2017-Jun-22 17:31N 45°24' E 012°29'4 8.6
2017-Jun-22 17:00N 45°26' E 012°23'3 5.1
2017-Jun-22 16:31N 45°26' E 012°19'1 1.1
2017-Jun-22 15:47N 45°26' E 012°19'0 0.0
2017-Jun-22 15:29N 45°26' E 012°19'0 0.0
2017-Jun-22 14:56N 45°26' E 012°19'0 0.0
2017-Jun-22 14:29N 45°26' E 012°19'0 0.0
2017-Jun-22 13:29N 45°26' E 012°19'62126.3
2017-Jun-22 13:00N 44°24' E 012°18'6210180.7 090 / 51016.010.8 26.020.222.0
2017-Jun-22 12:59N 45°26' E 012°19'0 0.0
2017-Jun-22 12:29N 45°26' E 012°19'0 0.0
2017-Jun-22 11:50N 45°26' E 012°19'0 0.0
2017-Jun-22 11:29N 45°26' E 012°19'0 0.0
2017-Jun-22 10:59N 45°26' E 012°19'0 0.0
2017-Jun-22 10:29N 45°26' E 012°19'0 0.0
2017-Jun-22 09:56N 45°26' E 012°19'0 0.0
2017-Jun-22 09:29N 45°26' E 012°19'0 0.0
2017-Jun-22 08:59N 45°26' E 012°19'0 0.0
2017-Jun-22 08:29N 45°26' E 012°19'0 0.0
2017-Jun-22 07:50N 45°26' E 012°19'0 0.0
2017-Jun-21 23:35N 45°26' E 012°19'0 0.0
2017-Jun-21 23:26N 45°26' E 012°19'0 0.0
2017-Jun-21 22:59N 45°26' E 012°19'0 0.0
2017-Jun-21 22:23N 45°26' E 012°19'0 0.0
2017-Jun-21 21:59N 45°26' E 012°19'0 0.0
2017-Jun-21 21:29N 45°26' E 012°19'0 0.0
2017-Jun-21 20:59N 45°26' E 012°19'0 0.0
2017-Jun-21 20:26N 45°26' E 012°19'0 0.0
2017-Jun-21 19:47N 45°26' E 012°19'0 0.0
2017-Jun-21 19:29N 45°26' E 012°19'0 0.0
2017-Jun-21 18:56N 45°26' E 012°19'0 0.0
2017-Jun-21 18:23N 45°26' E 012°19'0 0.0
2017-Jun-21 17:59N 45°26' E 012°19'0 0.0
2017-Jun-21 16:38N 45°26' E 012°19'0 0.0
2017-Jun-21 16:23N 45°26' E 012°19'0 0.0
2017-Jun-21 15:59N 45°26' E 012°19'0 0.0
2017-Jun-21 15:29N 45°26' E 012°19'0 0.0
2017-Jun-21 14:59N 45°26' E 012°19'0 0.0
2017-Jun-21 14:29N 45°26' E 012°19'0 0.0
2017-Jun-21 13:29N 45°26' E 012°19'0 0.0
2017-Jun-21 12:59N 45°26' E 012°19'0 0.0
2017-Jun-21 12:14N 45°26' E 012°19'0 0.0
2017-Jun-21 11:59N 45°26' E 012°19'0 0.0
2017-Jun-21 11:29N 45°26' E 012°19'0 0.0
2017-Jun-21 10:53N 45°26' E 012°19'0 0.0
2017-Jun-21 10:29N 45°26' E 012°19'0 0.0
2017-Jun-21 09:59N 45°26' E 012°19'0 0.1
2017-Jun-21 09:30N 45°26' E 012°19'1 1.7
2017-Jun-21 09:00N 45°26' E 012°20'2 4.9
2017-Jun-21 08:31N 45°26' E 012°23'5 9.3
2017-Jun-21 08:01N 45°24' E 012°29'612.1
2017-Jun-21 07:30N 45°18' E 012°33'715.0
2017-Jun-21 07:00N 45°13' E 012°40'715.0
2017-Jun-21 06:30N 45°08' E 012°48'816.1
2017-Jun-21 06:00N 45°01' E 012°52'816.6
2017-Jun-21 05:30N 44°53' E 012°57'816.7
2017-Jun-21 05:00N 44°45' E 013°01'3228.1
2017-Jun-21 05:00N 44°42' E 013°00'612.9 100 / 91016.0 23.020.125.0
2017-Jun-21 04:30N 44°37' E 013°06'918.0
2017-Jun-21 04:00N 44°28' E 013°10'918.0
2017-Jun-21 03:30N 44°20' E 013°14'917.4
2017-Jun-21 03:00N 44°14' E 013°22'917.9
2017-Jun-21 02:30N 44°08' E 013°32'917.8
2017-Jun-21 02:00N 44°03' E 013°42'917.6
2017-Jun-21 01:30N 43°58' E 013°52'917.9
2017-Jun-21 01:00N 43°54' E 014°03'1220.7
2017-Jun-21 00:27N 43°48' E 014°17'1020.8
2017-Jun-20 23:59N 43°40' E 014°25'1720.9
2017-Jun-20 23:10N 43°27' E 014°40'320.9
2017-Jun-20 23:00N 43°24' E 014°43'1120.9
2017-Jun-20 22:29N 43°16' E 014°52'1021.2
2017-Jun-20 22:00N 43°08' E 015°01'1521.4
2017-Jun-20 21:19N 42°56' E 015°14'721.3
2017-Jun-20 21:00N 42°51' E 015°20'1121.3
2017-Jun-20 20:29N 42°48' E 015°34'1721.1
2017-Jun-20 19:42N 42°43' E 015°56'1021.2
2017-Jun-20 19:13N 42°40' E 016°09'521.1
2017-Jun-20 18:58N 42°39' E 016°16'1321.0
2017-Jun-20 18:21N 42°37' E 016°34'920.8
2017-Jun-20 17:56N 42°36' E 016°45'920.8
2017-Jun-20 17:29N 42°36' E 016°58'1224.5
2017-Jun-20 17:00N 42°30' E 017°12'5409.1 320 / 61016.0 24.021.124.0
2017-Jun-20 16:59N 42°35' E 017°12'1221.1
2017-Jun-20 16:25N 42°35' E 017°28'921.0
2017-Jun-20 15:59N 42°35' E 017°41'84 5.3
2017-Jun-20 00:08N 41°17' E 018°23'917.6
2017-Jun-19 23:38N 41°09' E 018°25'217.4
2017-Jun-19 23:30N 41°06' E 018°25'2120.1
2017-Jun-19 22:25N 40°45' E 018°31'920.8
2017-Jun-19 22:00N 40°36' E 018°32'1020.3
2017-Jun-19 21:30N 40°27' E 018°35'19919.2
2017-Jun-19 11:07N 37°53' E 015°52'420.4
2017-Jun-19 10:56N 37°52' E 015°47'1019.0
2017-Jun-19 10:25N 37°58' E 015°37'920.5
2017-Jun-19 09:58N 38°07' E 015°35'715.9
2017-Jun-19 09:30N 38°14' E 015°37'611.3
2017-Jun-19 09:00N 38°19' E 015°40'612.9
2017-Jun-19 08:30N 38°25' E 015°37'816.2
2017-Jun-19 08:00N 38°32' E 015°33'916.2
2017-Jun-19 07:28N 38°40' E 015°28'916.2
2017-Jun-19 06:56N 38°48' E 015°23'23917.2
2017-Jun-18 17:00N 41°42' E 011°48'118 5.2 270 / 241016.0 25.022.225.0
2017-Jun-17 18:14N 40°38' E 013°59'516.9
2017-Jun-17 17:57N 40°40' E 014°05'817.2
2017-Jun-17 17:30N 40°45' E 014°12'6 6.1
2017-Jun-17 16:34N 40°50' E 014°16'0 0.0
2017-Jun-17 16:28N 40°50' E 014°16'0 0.0
2017-Jun-17 15:52N 40°50' E 014°16'0 0.0
2017-Jun-17 15:16N 40°50' E 014°16'0 0.0
2017-Jun-17 14:52N 40°50' E 014°16'0 0.0
2017-Jun-17 14:16N 40°50' E 014°16'0 0.0
2017-Jun-17 12:40N 40°50' E 014°16'0 0.0
2017-Jun-17 12:10N 40°50' E 014°16'0 0.0
2017-Jun-17 11:58N 40°50' E 014°16'0 0.0
2017-Jun-17 11:28N 40°50' E 014°16'0 0.0
2017-Jun-17 10:58N 40°50' E 014°16'0 0.0
2017-Jun-17 08:22N 40°50' E 014°16'0 0.0
2017-Jun-17 07:58N 40°50' E 014°16'0 0.0
2017-Jun-17 07:28N 40°50' E 014°16'0 0.0
2017-Jun-17 05:28N 40°50' E 014°16'0 0.1
2017-Jun-17 04:38N 40°50' E 014°16'0 1.1
2017-Jun-17 04:30N 40°50' E 014°16'3 5.2
2017-Jun-17 04:00N 40°48' E 014°17'714.1
2017-Jun-17 03:30N 40°41' E 014°17'714.1
2017-Jun-17 03:00N 40°34' E 014°18'714.4
2017-Jun-17 02:30N 40°27' E 014°22'2214.5
2017-Jun-17 00:58N 40°07' E 014°34'814.6
2017-Jun-17 00:26N 40°00' E 014°39'714.8
2017-Jun-16 23:59N 39°54' E 014°42'6014.5
2017-Jun-16 19:49N 38°59' E 015°16'614.8
2017-Jun-16 19:26N 38°54' E 015°19'614.7
2017-Jun-16 19:00N 38°49' E 015°23'714.7
2017-Jun-16 18:30N 38°42' E 015°27'714.6
2017-Jun-16 18:00N 38°36' E 015°32'714.8
2017-Jun-16 17:30N 38°29' E 015°35'714.9
2017-Jun-16 17:00N 38°22' E 015°39'713.1
2017-Jun-16 16:29N 38°15' E 015°40'612.9
2017-Jun-16 16:00N 38°12' E 015°34'0 0.4
2017-Jun-16 15:21N 38°12' E 015°33'0 0.0
2017-Jun-16 14:57N 38°12' E 015°33'0 0.0
2017-Jun-16 14:27N 38°12' E 015°33'0 0.0
2017-Jun-16 13:21N 38°12' E 015°33'0 0.0
2017-Jun-16 12:57N 38°12' E 015°33'0 0.0
2017-Jun-16 12:21N 38°12' E 015°33'0 0.0
2017-Jun-16 10:39N 38°12' E 015°33'0 0.0
2017-Jun-16 09:09N 38°12' E 015°33'0 0.0
2017-Jun-16 08:51N 38°12' E 015°33'0 0.0
2017-Jun-16 08:27N 38°12' E 015°33'0 0.0
2017-Jun-16 07:51N 38°12' E 015°33'0 0.0
2017-Jun-16 07:09N 38°12' E 015°33'0 0.0
2017-Jun-16 06:39N 38°12' E 015°33'0 0.0
2017-Jun-16 06:21N 38°12' E 015°33'0 0.0
2017-Jun-16 05:51N 38°12' E 015°33'0 0.0
2017-Jun-16 05:21N 38°12' E 015°33'1 2.1
2017-Jun-16 04:59N 38°12' E 015°34'5 9.4
2017-Jun-16 04:30N 38°08' E 015°36'916.5
2017-Jun-16 03:59N 37°60' E 015°36'1017.5
2017-Jun-16 03:24N 37°49' E 015°36'1717.1
2017-Jun-16 02:26N 37°33' E 015°36'3017.4
2017-Jun-16 00:42N 37°03' E 015°38'617.5
2017-Jun-16 00:23N 36°57' E 015°37'917.9
2017-Jun-15 23:53N 36°49' E 015°33'718.1
2017-Jun-15 23:30N 36°42' E 015°30'918.2
2017-Jun-15 23:00N 36°34' E 015°25'917.9
2017-Jun-15 22:30N 36°27' E 015°18'917.9
2017-Jun-15 22:00N 36°21' E 015°10'917.5
2017-Jun-15 21:30N 36°15' E 015°02'917.3
2017-Jun-15 21:00N 36°10' E 014°53'917.5
2017-Jun-15 20:30N 36°04' E 014°45'917.4
2017-Jun-15 20:00N 35°58' E 014°38'713.1
2017-Jun-15 19:30N 35°54' E 014°31'1 0.1
2017-Jun-15 10:42N 35°54' E 014°31'0 1.6
2017-Jun-15 10:30N 35°54' E 014°31'2 4.7
2017-Jun-15 10:00N 35°56' E 014°33'815.2
2017-Jun-15 09:30N 36°02' E 014°29'816.2
2017-Jun-15 09:00N 36°08' E 014°21'816.1
2017-Jun-15 08:30N 36°12' E 014°13'816.5
2017-Jun-15 08:01N 36°17' E 014°05'816.7
2017-Jun-15 07:31N 36°22' E 013°56'816.7
2017-Jun-15 07:00N 36°27' E 013°48'816.8
2017-Jun-15 06:30N 36°32' E 013°39'816.8
2017-Jun-15 06:00N 36°37' E 013°31'817.0
2017-Jun-15 05:30N 36°41' E 013°22'917.2
2017-Jun-15 05:00N 36°46' E 013°13'917.1
2017-Jun-15 04:30N 36°51' E 013°04'917.1
2017-Jun-15 04:00N 36°56' E 012°56'917.5
2017-Jun-15 03:30N 37°01' E 012°47'918.0
2017-Jun-15 03:00N 37°06' E 012°37'918.3
2017-Jun-15 02:30N 37°12' E 012°29'918.5
2017-Jun-15 02:00N 37°18' E 012°20'  

Dump ship's entire track history